VIA022 SKBG-SVMI
Flight info
| Callsign | VIA022 |
|---|---|
| Flight time | 1h 11m |
| Altitude | 35000 |
| Route | ESNUT2H ESNUT DCT CUC UW34 LFA UW8 BRM UW40 PBL UP533 IMBAT UP671 MIQ |
| Aircraft | B38M/M-SDE1FGHILORVWXY/HB1 |
Departure
| Time | 2026-04-23 16:15 |
|---|---|
| Airport | Palonegro Airport (SKBG) |
Arrival
| Time | 2026-04-23 17:27 |
|---|---|
| Airport | Maiquetía Simón Bolívar International Airport (SVMI) |
| Time | Latitude | Longitude | Altitude | Speed | Heading |
|---|---|---|---|---|---|
| 2026-04-23 14:57 | 7.12727 | -73.18229 | 3903 ft | 0 kts | 11° |
| 2026-04-23 16:02 | 7.12724 | -73.18230 | 3898 ft | 1 kts | 11° |
| 2026-04-23 16:02 | 7.12715 | -73.18232 | 3898 ft | 1 kts | 11° |
| 2026-04-23 16:02 | 7.12706 | -73.18234 | 3899 ft | 1 kts | 11° |
| 2026-04-23 16:02 | 7.12697 | -73.18236 | 3899 ft | 1 kts | 11° |
| 2026-04-23 16:03 | 7.12688 | -73.18238 | 3900 ft | 1 kts | 11° |
| 2026-04-23 16:03 | 7.12683 | -73.18239 | 3901 ft | 0 kts | 11° |
| 2026-04-23 16:06 | 7.12684 | -73.18238 | 3903 ft | 1 kts | 11° |
| 2026-04-23 16:07 | 7.12696 | -73.18241 | 3903 ft | 3 kts | 340° |
| 2026-04-23 16:07 | 7.12710 | -73.18255 | 3902 ft | 6 kts | 299° |
| 2026-04-23 16:07 | 7.12710 | -73.18297 | 3900 ft | 6 kts | 250° |
| 2026-04-23 16:07 | 7.12701 | -73.18315 | 3905 ft | 1 kts | 238° |
| 2026-04-23 16:08 | 7.12693 | -73.18326 | 3904 ft | 5 kts | 230° |
| 2026-04-23 16:08 | 7.12632 | -73.18351 | 3902 ft | 14 kts | 179° |
| 2026-04-23 16:08 | 7.12538 | -73.18319 | 3897 ft | 9 kts | 112° |
| 2026-04-23 16:08 | 7.12538 | -73.18317 | 3897 ft | 0 kts | 107° |
| 2026-04-23 16:09 | 7.12542 | -73.18328 | 3901 ft | 8 kts | 109° |
| 2026-04-23 16:09 | 7.12538 | -73.18330 | 3898 ft | 5 kts | 143° |
| 2026-04-23 16:09 | 7.12479 | -73.18304 | 3899 ft | 12 kts | 159° |
| 2026-04-23 16:10 | 7.12384 | -73.18268 | 3892 ft | 17 kts | 159° |
| 2026-04-23 16:10 | 7.12262 | -73.18221 | 3887 ft | 20 kts | 158° |
| 2026-04-23 16:10 | 7.12129 | -73.18170 | 3883 ft | 14 kts | 160° |
| 2026-04-23 16:10 | 7.12050 | -73.18141 | 3880 ft | 15 kts | 159° |
| 2026-04-23 16:11 | 7.11935 | -73.18102 | 3872 ft | 20 kts | 163° |
| 2026-04-23 16:11 | 7.11884 | -73.18090 | 3870 ft | 0 kts | 172° |
| 2026-04-23 16:12 | 7.11881 | -73.18090 | 3870 ft | 2 kts | 172° |
| 2026-04-23 16:13 | 7.11829 | -73.18087 | 3866 ft | 14 kts | 177° |
| 2026-04-23 16:13 | 7.11721 | -73.18122 | 3861 ft | 4 kts | 320° |
| 2026-04-23 16:13 | 7.11740 | -73.18133 | 3864 ft | 0 kts | 336° |
| 2026-04-23 16:14 | 7.11757 | -73.18140 | 3865 ft | 20 kts | 338° |
| 2026-04-23 16:14 | 7.12126 | -73.18279 | 3885 ft | 90 kts | 339° |
| 2026-04-23 16:15 | 7.12909 | -73.18575 | 3914 ft | 147 kts | 339° |
| 2026-04-23 16:15 | 7.13942 | -73.18967 | 4332 ft | 161 kts | 339° |
| 2026-04-23 16:15 | 7.15032 | -73.19379 | 4839 ft | 175 kts | 340° |
| 2026-04-23 16:15 | 7.16205 | -73.19804 | 5405 ft | 182 kts | 339° |
| 2026-04-23 16:16 | 7.17407 | -73.20270 | 6006 ft | 188 kts | 338° |
| 2026-04-23 16:16 | 7.18650 | -73.20787 | 6549 ft | 198 kts | 336° |
| 2026-04-23 16:16 | 7.19971 | -73.21305 | 7010 ft | 211 kts | 340° |
| 2026-04-23 16:16 | 7.21397 | -73.21818 | 7475 ft | 229 kts | 340° |
| 2026-04-23 16:17 | 7.22959 | -73.22388 | 7907 ft | 248 kts | 340° |
| 2026-04-23 16:17 | 7.24623 | -73.23005 | 8354 ft | 259 kts | 339° |
| 2026-04-23 16:17 | 7.26355 | -73.23653 | 8791 ft | 272 kts | 339° |
| 2026-04-23 16:17 | 7.28146 | -73.24325 | 9266 ft | 279 kts | 339° |
| 2026-04-23 16:18 | 7.29980 | -73.25016 | 9760 ft | 283 kts | 339° |
| 2026-04-23 16:18 | 7.31904 | -73.25443 | 10212 ft | 287 kts | 0° |
| 2026-04-23 16:18 | 7.33916 | -73.25061 | 10624 ft | 306 kts | 23° |
| 2026-04-23 16:18 | 7.35725 | -73.23842 | 11088 ft | 322 kts | 46° |
| 2026-04-23 16:19 | 7.37106 | -73.22024 | 11646 ft | 334 kts | 55° |
| 2026-04-23 16:19 | 7.38479 | -73.20096 | 12320 ft | 340 kts | 54° |
| 2026-04-23 16:19 | 7.39853 | -73.18154 | 13140 ft | 343 kts | 55° |
| 2026-04-23 16:19 | 7.41245 | -73.16177 | 13836 ft | 348 kts | 55° |
| 2026-04-23 16:20 | 7.42650 | -73.14178 | 14487 ft | 352 kts | 55° |
| 2026-04-23 16:20 | 7.44019 | -73.12105 | 14907 ft | 356 kts | 64° |
| 2026-04-23 16:20 | 7.44783 | -73.09757 | 14963 ft | 354 kts | 81° |
| 2026-04-23 16:20 | 7.45211 | -73.07308 | 14957 ft | 355 kts | 81° |
| 2026-04-23 16:21 | 7.45634 | -73.04862 | 15172 ft | 354 kts | 81° |
| 2026-04-23 16:21 | 7.46047 | -73.02403 | 15515 ft | 357 kts | 81° |
| 2026-04-23 16:21 | 7.46456 | -72.99928 | 15872 ft | 360 kts | 81° |
| 2026-04-23 16:21 | 7.46866 | -72.97428 | 16242 ft | 363 kts | 81° |
| 2026-04-23 16:22 | 7.47277 | -72.94915 | 16614 ft | 365 kts | 81° |
| 2026-04-23 16:22 | 7.47689 | -72.92389 | 16990 ft | 367 kts | 81° |
| 2026-04-23 16:22 | 7.48105 | -72.89842 | 17366 ft | 369 kts | 81° |
| 2026-04-23 16:22 | 7.48518 | -72.87310 | 17751 ft | 372 kts | 81° |
| 2026-04-23 16:23 | 7.48944 | -72.84695 | 18146 ft | 374 kts | 81° |
| 2026-04-23 16:23 | 7.49362 | -72.82130 | 18508 ft | 377 kts | 81° |
| 2026-04-23 16:23 | 7.49791 | -72.79507 | 18848 ft | 379 kts | 79° |
| 2026-04-23 16:23 | 7.50602 | -72.76993 | 19177 ft | 380 kts | 62° |
| 2026-04-23 16:24 | 7.52165 | -72.74851 | 19520 ft | 381 kts | 43° |
| 2026-04-23 16:24 | 7.54294 | -72.73252 | 19877 ft | 383 kts | 31° |
| 2026-04-23 16:24 | 7.56595 | -72.71872 | 20223 ft | 387 kts | 30° |
| 2026-04-23 16:24 | 7.58935 | -72.70517 | 20591 ft | 389 kts | 29° |
| 2026-04-23 16:25 | 7.61300 | -72.69173 | 20932 ft | 391 kts | 28° |
| 2026-04-23 16:25 | 7.63691 | -72.67831 | 21293 ft | 394 kts | 28° |
| 2026-04-23 16:25 | 7.66095 | -72.66491 | 21662 ft | 396 kts | 28° |
| 2026-04-23 16:25 | 7.68488 | -72.65160 | 22029 ft | 398 kts | 28° |
| 2026-04-23 16:26 | 7.70922 | -72.63810 | 22401 ft | 401 kts | 28° |
| 2026-04-23 16:26 | 7.73372 | -72.62449 | 22791 ft | 403 kts | 28° |
| 2026-04-23 16:26 | 7.75836 | -72.61081 | 23175 ft | 406 kts | 28° |
| 2026-04-23 16:26 | 7.78318 | -72.59703 | 23572 ft | 408 kts | 28° |
| 2026-04-23 16:27 | 7.80820 | -72.58313 | 23919 ft | 411 kts | 28° |
| 2026-04-23 16:27 | 7.83336 | -72.56915 | 24245 ft | 413 kts | 28° |
| 2026-04-23 16:27 | 7.85860 | -72.55514 | 24583 ft | 415 kts | 28° |
| 2026-04-23 16:27 | 7.88397 | -72.54104 | 24922 ft | 417 kts | 28° |
| 2026-04-23 16:28 | 7.90948 | -72.52686 | 25268 ft | 420 kts | 28° |
| 2026-04-23 16:28 | 7.93493 | -72.51214 | 25601 ft | 421 kts | 35° |
| 2026-04-23 16:28 | 7.95814 | -72.49401 | 25966 ft | 423 kts | 38° |
| 2026-04-23 16:28 | 7.98134 | -72.47570 | 26312 ft | 425 kts | 38° |
| 2026-04-23 16:29 | 8.00471 | -72.45727 | 26681 ft | 427 kts | 38° |
| 2026-04-23 16:29 | 8.02780 | -72.43905 | 27037 ft | 427 kts | 38° |
| 2026-04-23 16:29 | 8.05116 | -72.42061 | 27403 ft | 426 kts | 38° |
| 2026-04-23 16:29 | 8.07482 | -72.40192 | 27783 ft | 426 kts | 38° |
| 2026-04-23 16:30 | 8.09810 | -72.38353 | 28162 ft | 425 kts | 38° |
| 2026-04-23 16:30 | 8.12134 | -72.36517 | 28551 ft | 424 kts | 38° |
| 2026-04-23 16:30 | 8.14430 | -72.34703 | 28931 ft | 423 kts | 38° |
| 2026-04-23 16:30 | 8.16755 | -72.32866 | 29326 ft | 423 kts | 38° |
| 2026-04-23 16:31 | 8.19069 | -72.31037 | 29724 ft | 422 kts | 38° |
| 2026-04-23 16:31 | 8.21373 | -72.29216 | 30120 ft | 421 kts | 38° |
| 2026-04-23 16:31 | 8.23635 | -72.27342 | 30457 ft | 419 kts | 46° |
| 2026-04-23 16:31 | 8.25438 | -72.25050 | 30800 ft | 415 kts | 56° |
| 2026-04-23 16:32 | 8.27124 | -72.22687 | 31164 ft | 414 kts | 55° |
| 2026-04-23 16:32 | 8.28798 | -72.20327 | 31527 ft | 412 kts | 56° |
| 2026-04-23 16:32 | 8.30453 | -72.17968 | 31893 ft | 410 kts | 56° |
| 2026-04-23 16:32 | 8.32091 | -72.15619 | 32265 ft | 408 kts | 56° |
| 2026-04-23 16:33 | 8.33718 | -72.13281 | 32641 ft | 405 kts | 56° |
| 2026-04-23 16:33 | 8.35333 | -72.10958 | 33024 ft | 402 kts | 56° |
| 2026-04-23 16:33 | 8.36938 | -72.08648 | 33414 ft | 398 kts | 56° |
| 2026-04-23 16:33 | 8.38498 | -72.06402 | 33785 ft | 395 kts | 56° |
| 2026-04-23 16:34 | 8.41698 | -72.01796 | 33864 ft | 406 kts | 56° |
| 2026-04-23 16:34 | 8.44990 | -71.97054 | 33937 ft | 418 kts | 56° |
| 2026-04-23 16:35 | 8.47819 | -71.92978 | 33999 ft | 428 kts | 56° |
| 2026-04-23 16:35 | 8.50357 | -71.89321 | 34046 ft | 437 kts | 56° |
| 2026-04-23 16:36 | 8.53897 | -71.84217 | 34101 ft | 450 kts | 56° |
| 2026-04-23 16:36 | 8.57543 | -71.78959 | 34147 ft | 463 kts | 56° |
| 2026-04-23 16:37 | 8.61280 | -71.73567 | 34437 ft | 468 kts | 56° |
| 2026-04-23 16:37 | 8.63151 | -71.70867 | 34737 ft | 468 kts | 56° |
| 2026-04-23 16:37 | 8.64992 | -71.68210 | 34958 ft | 468 kts | 56° |
| 2026-04-23 16:38 | 8.68709 | -71.62844 | 34990 ft | 465 kts | 57° |
| 2026-04-23 16:38 | 8.72419 | -71.57484 | 34995 ft | 465 kts | 56° |
| 2026-04-23 16:39 | 8.76128 | -71.52124 | 35001 ft | 465 kts | 56° |
| 2026-04-23 16:39 | 8.79831 | -71.46772 | 35002 ft | 464 kts | 56° |
| 2026-04-23 16:40 | 8.83539 | -71.41410 | 35010 ft | 465 kts | 56° |
| 2026-04-23 16:40 | 8.87224 | -71.36077 | 35020 ft | 465 kts | 56° |
| 2026-04-23 16:41 | 8.90925 | -71.30718 | 35028 ft | 465 kts | 56° |
| 2026-04-23 16:41 | 8.94626 | -71.25356 | 35030 ft | 465 kts | 56° |
| 2026-04-23 16:42 | 8.98328 | -71.19992 | 35039 ft | 465 kts | 56° |
| 2026-04-23 16:42 | 9.02032 | -71.14622 | 35041 ft | 465 kts | 56° |
| 2026-04-23 16:43 | 9.05738 | -71.09246 | 35036 ft | 465 kts | 56° |
| 2026-04-23 16:43 | 9.09437 | -71.03879 | 35037 ft | 465 kts | 56° |
| 2026-04-23 16:44 | 9.13137 | -70.98508 | 35032 ft | 465 kts | 56° |
| 2026-04-23 16:44 | 9.16808 | -70.93176 | 35029 ft | 466 kts | 56° |
| 2026-04-23 16:45 | 9.20489 | -70.87829 | 35024 ft | 466 kts | 56° |
| 2026-04-23 16:45 | 9.24191 | -70.82448 | 35016 ft | 466 kts | 56° |
| 2026-04-23 16:46 | 9.27898 | -70.77058 | 35025 ft | 466 kts | 56° |
| 2026-04-23 16:46 | 9.31609 | -70.71662 | 35003 ft | 466 kts | 56° |
| 2026-04-23 16:47 | 9.35314 | -70.66273 | 35019 ft | 466 kts | 56° |
| 2026-04-23 16:47 | 9.39020 | -70.60880 | 35006 ft | 466 kts | 56° |
| 2026-04-23 16:48 | 9.42637 | -70.55480 | 35002 ft | 465 kts | 62° |
| 2026-04-23 16:48 | 9.45380 | -70.49565 | 35020 ft | 465 kts | 68° |
| 2026-04-23 16:49 | 9.47934 | -70.43540 | 35017 ft | 465 kts | 68° |
| 2026-04-23 16:49 | 9.50522 | -70.37525 | 35021 ft | 466 kts | 68° |
| 2026-04-23 16:50 | 9.53111 | -70.31511 | 35019 ft | 465 kts | 68° |
| 2026-04-23 16:50 | 9.55698 | -70.25500 | 35032 ft | 465 kts | 68° |
| 2026-04-23 16:51 | 9.58267 | -70.19528 | 35025 ft | 465 kts | 68° |
| 2026-04-23 16:51 | 9.60857 | -70.13503 | 35028 ft | 465 kts | 68° |
| 2026-04-23 16:52 | 9.63443 | -70.07486 | 35026 ft | 466 kts | 68° |
| 2026-04-23 16:52 | 9.66030 | -70.01461 | 35018 ft | 466 kts | 68° |
| 2026-04-23 16:53 | 9.68178 | -69.96458 | 35018 ft | 466 kts | 68° |
| 2026-04-23 16:53 | 9.71183 | -69.89454 | 35010 ft | 466 kts | 68° |
| 2026-04-23 16:54 | 9.73333 | -69.84440 | 34998 ft | 466 kts | 68° |
| 2026-04-23 16:54 | 9.75917 | -69.78408 | 34999 ft | 466 kts | 68° |
| 2026-04-23 16:55 | 9.78501 | -69.72374 | 35000 ft | 467 kts | 68° |
| 2026-04-23 16:55 | 9.81088 | -69.66332 | 34992 ft | 467 kts | 68° |
| 2026-04-23 16:56 | 9.83673 | -69.60289 | 34988 ft | 467 kts | 68° |
| 2026-04-23 16:56 | 9.86147 | -69.54504 | 34988 ft | 467 kts | 68° |
| 2026-04-23 16:57 | 9.88733 | -69.48451 | 34978 ft | 467 kts | 68° |
| 2026-04-23 16:57 | 9.91316 | -69.42404 | 34719 ft | 466 kts | 68° |
| 2026-04-23 16:58 | 9.92605 | -69.39386 | 34299 ft | 465 kts | 68° |
| 2026-04-23 16:58 | 9.93892 | -69.36369 | 33860 ft | 467 kts | 68° |
| 2026-04-23 16:58 | 9.95184 | -69.33340 | 33378 ft | 469 kts | 68° |
| 2026-04-23 16:58 | 9.96481 | -69.30299 | 32908 ft | 471 kts | 68° |
| 2026-04-23 16:59 | 9.97783 | -69.27248 | 32440 ft | 472 kts | 67° |
| 2026-04-23 16:59 | 9.99071 | -69.24224 | 31993 ft | 474 kts | 67° |
| 2026-04-23 16:59 | 10.00380 | -69.21153 | 31542 ft | 475 kts | 67° |
| 2026-04-23 16:59 | 10.01692 | -69.18074 | 31098 ft | 476 kts | 67° |
| 2026-04-23 17:00 | 10.03009 | -69.14982 | 30659 ft | 478 kts | 67° |
| 2026-04-23 17:00 | 10.04329 | -69.11881 | 30237 ft | 479 kts | 67° |
| 2026-04-23 17:00 | 10.05654 | -69.08769 | 29758 ft | 480 kts | 67° |
| 2026-04-23 17:00 | 10.06979 | -69.05654 | 29266 ft | 481 kts | 67° |
| 2026-04-23 17:01 | 10.08306 | -69.02534 | 28781 ft | 481 kts | 67° |
| 2026-04-23 17:01 | 10.09633 | -68.99413 | 28303 ft | 482 kts | 67° |
| 2026-04-23 17:01 | 10.10961 | -68.96290 | 27839 ft | 483 kts | 67° |
| 2026-04-23 17:01 | 10.12290 | -68.93161 | 27385 ft | 483 kts | 67° |
| 2026-04-23 17:02 | 10.13622 | -68.90027 | 26875 ft | 484 kts | 67° |
| 2026-04-23 17:02 | 10.14953 | -68.86894 | 26390 ft | 483 kts | 67° |
| 2026-04-23 17:02 | 10.16283 | -68.83762 | 25907 ft | 483 kts | 66° |
| 2026-04-23 17:02 | 10.17598 | -68.80663 | 25461 ft | 482 kts | 67° |
| 2026-04-23 17:03 | 10.18923 | -68.77543 | 24993 ft | 479 kts | 67° |
| 2026-04-23 17:03 | 10.20233 | -68.74455 | 24540 ft | 475 kts | 67° |
| 2026-04-23 17:03 | 10.21535 | -68.71384 | 24102 ft | 470 kts | 67° |
| 2026-04-23 17:03 | 10.22824 | -68.68343 | 23671 ft | 466 kts | 67° |
| 2026-04-23 17:04 | 10.24099 | -68.65334 | 23186 ft | 462 kts | 67° |
| 2026-04-23 17:04 | 10.25364 | -68.62350 | 22679 ft | 457 kts | 67° |
| 2026-04-23 17:04 | 10.26607 | -68.59415 | 22194 ft | 449 kts | 66° |
| 2026-04-23 17:04 | 10.27833 | -68.56521 | 21709 ft | 442 kts | 67° |
| 2026-04-23 17:05 | 10.29038 | -68.53674 | 21237 ft | 435 kts | 67° |
| 2026-04-23 17:05 | 10.30224 | -68.50871 | 20761 ft | 429 kts | 67° |
| 2026-04-23 17:05 | 10.31397 | -68.48099 | 20289 ft | 423 kts | 67° |
| 2026-04-23 17:05 | 10.32551 | -68.45370 | 19832 ft | 417 kts | 66° |
| 2026-04-23 17:06 | 10.33684 | -68.42691 | 19379 ft | 412 kts | 66° |
| 2026-04-23 17:06 | 10.34796 | -68.40061 | 18935 ft | 408 kts | 66° |
| 2026-04-23 17:06 | 10.35909 | -68.37429 | 18495 ft | 403 kts | 66° |
| 2026-04-23 17:06 | 10.37010 | -68.34822 | 18018 ft | 399 kts | 66° |
| 2026-04-23 17:07 | 10.38100 | -68.32242 | 17513 ft | 396 kts | 66° |
| 2026-04-23 17:07 | 10.39182 | -68.29681 | 17009 ft | 392 kts | 66° |
| 2026-04-23 17:07 | 10.40254 | -68.27143 | 16517 ft | 390 kts | 66° |
| 2026-04-23 17:07 | 10.41316 | -68.24626 | 16028 ft | 386 kts | 66° |
| 2026-04-23 17:08 | 10.42355 | -68.22163 | 15579 ft | 372 kts | 66° |
| 2026-04-23 17:08 | 10.43356 | -68.19792 | 15148 ft | 360 kts | 66° |
| 2026-04-23 17:08 | 10.44327 | -68.17490 | 14704 ft | 349 kts | 66° |
| 2026-04-23 17:08 | 10.45272 | -68.15249 | 14254 ft | 339 kts | 66° |
| 2026-04-23 17:09 | 10.46190 | -68.13072 | 13803 ft | 331 kts | 66° |
| 2026-04-23 17:09 | 10.47077 | -68.10966 | 13307 ft | 325 kts | 66° |
| 2026-04-23 17:09 | 10.47960 | -68.08870 | 12795 ft | 319 kts | 66° |
| 2026-04-23 17:09 | 10.48688 | -68.06770 | 12284 ft | 312 kts | 78° |
| 2026-04-23 17:10 | 10.49127 | -68.04635 | 11804 ft | 306 kts | 78° |
| 2026-04-23 17:10 | 10.49589 | -68.02541 | 11312 ft | 301 kts | 77° |
| 2026-04-23 17:10 | 10.50059 | -68.00492 | 10846 ft | 296 kts | 77° |
| 2026-04-23 17:10 | 10.50531 | -67.98472 | 10371 ft | 292 kts | 77° |
| 2026-04-23 17:11 | 10.51002 | -67.96486 | 10007 ft | 285 kts | 77° |
| 2026-04-23 17:11 | 10.51472 | -67.94517 | 9992 ft | 288 kts | 77° |
| 2026-04-23 17:11 | 10.51947 | -67.92536 | 9974 ft | 288 kts | 77° |
| 2026-04-23 17:11 | 10.52416 | -67.90581 | 9978 ft | 288 kts | 77° |
| 2026-04-23 17:12 | 10.52897 | -67.88579 | 9975 ft | 288 kts | 76° |
| 2026-04-23 17:12 | 10.53367 | -67.86622 | 9974 ft | 288 kts | 77° |
| 2026-04-23 17:12 | 10.53848 | -67.84615 | 9968 ft | 289 kts | 77° |
| 2026-04-23 17:12 | 10.54319 | -67.82653 | 9782 ft | 289 kts | 77° |
| 2026-04-23 17:13 | 10.54793 | -67.80681 | 9524 ft | 285 kts | 77° |
| 2026-04-23 17:13 | 10.55259 | -67.78740 | 9266 ft | 280 kts | 77° |
| 2026-04-23 17:13 | 10.55715 | -67.76835 | 9018 ft | 275 kts | 77° |
| 2026-04-23 17:13 | 10.56165 | -67.74957 | 8770 ft | 272 kts | 77° |
| 2026-04-23 17:14 | 10.56612 | -67.73092 | 8520 ft | 272 kts | 77° |
| 2026-04-23 17:14 | 10.57061 | -67.71220 | 8271 ft | 272 kts | 77° |
| 2026-04-23 17:14 | 10.57508 | -67.69353 | 8026 ft | 271 kts | 77° |
| 2026-04-23 17:14 | 10.57954 | -67.67492 | 7779 ft | 270 kts | 77° |
| 2026-04-23 17:15 | 10.58237 | -67.65618 | 7529 ft | 268 kts | 89° |
| 2026-04-23 17:15 | 10.58287 | -67.63729 | 7304 ft | 267 kts | 89° |
| 2026-04-23 17:15 | 10.58340 | -67.61867 | 7068 ft | 266 kts | 89° |
| 2026-04-23 17:15 | 10.58400 | -67.59988 | 6829 ft | 265 kts | 89° |
| 2026-04-23 17:16 | 10.58462 | -67.58121 | 6595 ft | 264 kts | 90° |
| 2026-04-23 17:16 | 10.58525 | -67.56260 | 6371 ft | 260 kts | 89° |
| 2026-04-23 17:16 | 10.58587 | -67.54445 | 6160 ft | 254 kts | 89° |
| 2026-04-23 17:16 | 10.58648 | -67.52668 | 5957 ft | 248 kts | 89° |
| 2026-04-23 17:17 | 10.58706 | -67.50957 | 5777 ft | 246 kts | 89° |
| 2026-04-23 17:17 | 10.58767 | -67.49215 | 5594 ft | 246 kts | 89° |
| 2026-04-23 17:17 | 10.58807 | -67.48044 | 5476 ft | 246 kts | 89° |
| 2026-04-23 17:17 | 10.58886 | -67.45746 | 5234 ft | 245 kts | 89° |
| 2026-04-23 17:18 | 10.59003 | -67.42299 | 4878 ft | 243 kts | 89° |
| 2026-04-23 17:18 | 10.59062 | -67.40588 | 4704 ft | 240 kts | 89° |
| 2026-04-23 17:18 | 10.59119 | -67.38914 | 4512 ft | 234 kts | 89° |
| 2026-04-23 17:19 | 10.59174 | -67.37286 | 4328 ft | 228 kts | 89° |
| 2026-04-23 17:19 | 10.59229 | -67.35671 | 4145 ft | 228 kts | 88° |
| 2026-04-23 17:19 | 10.59283 | -67.34083 | 3998 ft | 227 kts | 88° |
| 2026-04-23 17:19 | 10.59335 | -67.32519 | 3961 ft | 209 kts | 88° |
| 2026-04-23 17:20 | 10.59384 | -67.31080 | 3993 ft | 206 kts | 88° |
| 2026-04-23 17:20 | 10.59480 | -67.28186 | 3980 ft | 198 kts | 88° |
| 2026-04-23 17:21 | 10.59595 | -67.25626 | 3983 ft | 173 kts | 88° |
| 2026-04-23 17:21 | 10.59641 | -67.24400 | 4005 ft | 173 kts | 89° |
| 2026-04-23 17:21 | 10.59719 | -67.21951 | 4012 ft | 174 kts | 89° |
| 2026-04-23 17:22 | 10.59758 | -67.20726 | 3818 ft | 171 kts | 89° |
| 2026-04-23 17:22 | 10.59833 | -67.18403 | 3426 ft | 161 kts | 88° |
| 2026-04-23 17:23 | 10.59905 | -67.16150 | 3042 ft | 159 kts | 88° |
| 2026-04-23 17:23 | 10.59940 | -67.15043 | 2840 ft | 158 kts | 88° |
| 2026-04-23 17:23 | 10.60009 | -67.12869 | 2471 ft | 151 kts | 88° |
| 2026-04-23 17:24 | 10.60043 | -67.11805 | 2277 ft | 149 kts | 88° |
| 2026-04-23 17:24 | 10.60078 | -67.10752 | 2126 ft | 149 kts | 89° |
| 2026-04-23 17:24 | 10.60145 | -67.08669 | 1721 ft | 149 kts | 89° |
| 2026-04-23 17:25 | 10.60212 | -67.06541 | 1300 ft | 159 kts | 88° |
| 2026-04-23 17:25 | 10.60248 | -67.05382 | 1070 ft | 168 kts | 89° |
| 2026-04-23 17:26 | 10.60314 | -67.03305 | 699 ft | 131 kts | 90° |
| 2026-04-23 17:26 | 10.60375 | -67.01255 | 321 ft | 145 kts | 90° |
| 2026-04-23 17:27 | 10.60432 | -66.99586 | 211 ft | 82 kts | 89° |
| 2026-04-23 17:27 | 10.60442 | -66.99222 | 200 ft | 28 kts | 89° |
| 2026-04-23 17:27 | 10.60364 | -66.99118 | 193 ft | 0 kts | 177° |
| 2026-04-23 17:29 | 10.60296 | -66.99142 | 189 ft | 12 kts | 237° |
| 2026-04-23 17:30 | 10.60280 | -66.99199 | 188 ft | 13 kts | 263° |
| 2026-04-23 17:30 | 10.60270 | -66.99392 | 199 ft | 10 kts | 268° |
| 2026-04-23 17:30 | 10.60267 | -66.99457 | 202 ft | 9 kts | 268° |
| 2026-04-23 17:31 | 10.60265 | -66.99520 | 209 ft | 10 kts | 268° |
| 2026-04-23 17:31 | 10.60264 | -66.99599 | 205 ft | 12 kts | 270° |
| 2026-04-23 17:31 | 10.60262 | -66.99685 | 211 ft | 12 kts | 268° |
| 2026-04-23 17:31 | 10.60260 | -66.99767 | 211 ft | 11 kts | 268° |
| 2026-04-23 17:32 | 10.60257 | -66.99835 | 214 ft | 9 kts | 267° |
| 2026-04-23 17:32 | 10.60255 | -66.99893 | 217 ft | 8 kts | 267° |
| 2026-04-23 17:32 | 10.60252 | -66.99965 | 223 ft | 13 kts | 267° |
| 2026-04-23 17:32 | 10.60246 | -67.00079 | 221 ft | 20 kts | 267° |
| 2026-04-23 17:33 | 10.60243 | -67.00227 | 222 ft | 21 kts | 269° |
| 2026-04-23 17:33 | 10.60157 | -67.00298 | 228 ft | 18 kts | 182° |
| 2026-04-23 17:33 | 10.60047 | -67.00294 | 227 ft | 13 kts | 178° |
| 2026-04-23 17:33 | 10.59957 | -67.00296 | 227 ft | 12 kts | 195° |
| 2026-04-23 17:34 | 10.59906 | -67.00338 | 228 ft | 9 kts | 199° |
| 2026-04-23 17:34 | 10.59884 | -67.00339 | 228 ft | 2 kts | 175° |
| 2026-04-23 17:34 | 10.59829 | -67.00336 | 228 ft | 0 kts | 179° |